Terminal Aerodrome Forecast
Issued by NWS

Home | Current Version | Previous Version | Text Only | Print | Product List | Glossary On
Versions: 1 2 3 4 5 6 7 8 9 10 11 12 13 14
000
FTUS45 KVEF 250500
TAFBIH
TAF
KBIH 250520Z 2506/2606 34007KT P6SM SCT120 BKN200
     FM251800 18012G20KT P6SM SCT080 BKN120
     FM252000 24015G25KT P6SM VCSH SCT080 BKN100
     FM260200 34014G22KT P6SM VCSH BKN080=

USA.gov is the U.S. government's official web portal to all federal, state and local government web resources and services.